Archiv-/Tagesdaten

--Timestamp---	Temp	Chill	HIndex	Humid	Dewpt	Wind	HiWind	WindDir	Rain	Barom	Solar	ET	UV
--------------	----	-----	------	-----	-----	----	------	-------	----	-----	-----	--	--
20080426 00:05	6.2	6.2	6.2	88	4.3	3	10	225	0.00	1029.499	0	0.000	0
20080426 00:10	6.2	6.2	6.2	87	4.2	5	10	202	0.00	1029.465	0	0.000	0
20080426 00:15	6.2	6.2	6.2	87	4.2	3	10	202	0.00	1029.363	0	0.000	0
20080426 00:20	6.1	6.1	6.1	87	4.1	2	8	202	0.00	1029.330	0	0.000	0
20080426 00:25	6.1	6.1	6.1	87	4.1	3	6	180	0.00	1029.397	0	0.000	0
20080426 00:30	6.1	6.1	6.1	87	4.1	2	11	202	0.00	1029.465	0	0.000	0
20080426 00:35	6.1	6.1	6.1	87	4.1	3	6	202	0.00	1029.431	0	0.000	0
20080426 00:40	6.1	6.1	6.1	87	4.1	3	10	202	0.00	1029.465	0	0.000	0
20080426 00:45	6.1	6.1	6.1	87	4.1	2	6	202	0.00	1029.499	0	0.000	0
20080426 00:50	6.1	6.1	6.1	87	4.1	3	8	202	0.00	1029.499	0	0.000	0
20080426 00:55	6.0	6.0	6.0	87	4.0	3	11	225	0.00	1029.533	0	0.000	0
20080426 01:00	5.9	5.9	5.9	88	4.1	5	10	202	0.00	1029.465	0	0.000	0
20080426 01:05	5.9	5.9	5.9	88	4.1	3	11	202	0.00	1029.025	0	0.000	0
20080426 01:10	5.9	5.9	5.9	89	4.2	5	10	202	0.00	1028.957	0	0.000	0
20080426 01:15	5.9	5.9	5.9	89	4.2	2	6	202	0.00	1029.025	0	0.000	0
20080426 01:20	5.9	5.9	5.9	89	4.2	0	3	202	0.00	1029.025	0	0.000	0
20080426 01:25	5.8	5.8	5.8	89	4.2	0	3	202	0.00	1028.991	0	0.000	0
20080426 01:30	5.8	5.8	5.8	89	4.2	2	8	202	0.00	1028.923	0	0.000	0
20080426 01:35	5.8	5.8	5.8	89	4.1	3	10	202	0.00	1029.093	0	0.000	0
20080426 01:40	5.8	5.8	5.8	89	4.1	3	8	180	0.00	1028.991	0	0.000	0
20080426 01:45	5.8	5.8	5.8	89	4.1	3	8	202	0.00	1028.923	0	0.000	0
20080426 01:50	5.8	5.8	5.8	89	4.1	5	8	202	0.00	1028.855	0	0.000	0
20080426 01:55	5.7	5.7	5.7	89	4.1	5	10	202	0.00	1028.855	0	0.000	0
20080426 02:00	5.7	5.7	5.7	89	4.0	5	11	202	0.00	1028.822	0	0.000	0
20080426 02:05	5.6	5.6	5.6	89	3.9	5	11	202	0.00	1028.754	0	0.000	0
20080426 02:10	5.6	5.6	5.6	89	3.9	5	10	202	0.00	1028.686	0	0.000	0
20080426 02:15	5.6	5.6	5.6	89	3.9	3	10	202	0.00	1028.686	0	0.000	0
20080426 02:20	5.5	5.5	5.5	89	3.8	3	8	202	0.00	1028.754	0	0.000	0
20080426 02:25	5.4	5.4	5.4	89	3.8	3	8	202	0.00	1028.686	0	0.000	0
20080426 02:30	5.4	5.4	5.4	89	3.8	3	6	202	0.00	1028.686	0	0.000	0
20080426 02:35	5.3	5.3	5.3	89	3.7	3	10	202	0.00	1028.652	0	0.000	0
20080426 02:40	5.3	5.3	5.3	89	3.6	3	10	202	0.00	1028.652	0	0.000	0
20080426 02:45	5.3	5.3	5.3	89	3.6	3	8	202	0.00	1028.754	0	0.000	0
20080426 02:50	5.2	5.2	5.2	89	3.6	2	6	202	0.00	1028.788	0	0.000	0
20080426 02:55	5.2	5.2	5.2	89	3.5	2	6	202	0.00	1028.788	0	0.000	0
20080426 03:00	5.1	5.1	5.1	89	3.4	2	5	202	0.00	1028.855	0	0.000	0
20080426 03:05	5.1	5.1	5.1	90	3.6	3	6	202	0.00	1028.991	0	0.000	0
20080426 03:10	4.9	4.9	4.9	90	3.4	2	6	202	0.00	1028.957	0	0.000	0
20080426 03:15	4.9	4.9	4.9	90	3.4	0	2	202	0.00	1028.991	0	0.000	0
20080426 03:20	4.8	4.8	4.8	90	3.3	0	5	202	0.00	1029.025	0	0.000	0
20080426 03:25	4.7	4.7	4.7	90	3.2	0	3	202	0.00	1029.093	0	0.000	0
20080426 03:30	4.7	4.7	4.7	90	3.2	2	5	202	0.00	1029.126	0	0.000	0
20080426 03:35	4.6	4.6	4.6	90	3.1	0	5	202	0.00	1029.126	0	0.000	0
20080426 03:40	4.6	4.6	4.6	90	3.1	2	6	202	0.00	1029.194	0	0.000	0
20080426 03:45	4.6	4.6	4.6	90	3.1	2	8	202	0.00	1029.194	0	0.000	0
20080426 03:50	4.6	4.6	4.6	90	3.1	2	6	202	0.00	1029.160	0	0.000	0
20080426 03:55	4.6	4.6	4.6	90	3.1	2	5	202	0.00	1029.093	0	0.000	0
20080426 04:00	4.5	4.5	4.5	91	3.2	2	6	202	0.00	1028.991	0	0.000	0
20080426 04:05	4.5	4.5	4.5	91	3.2	0	5	202	0.00	1028.889	0	0.000	0
20080426 04:10	4.5	4.5	4.5	91	3.2	0	5	202	0.00	1028.855	0	0.000	0
20080426 04:15	4.4	4.4	4.4	91	3.1	2	6	202	0.00	1028.788	0	0.000	0
20080426 04:20	4.3	4.3	4.3	90	2.8	0	5	202	0.00	1028.788	0	0.000	0
20080426 04:25	4.3	4.3	4.3	91	3.0	0	3	202	0.00	1028.720	0	0.000	0
20080426 04:30	4.3	4.3	4.3	91	2.9	2	5	202	0.00	1028.720	0	0.000	0
20080426 04:35	4.2	4.2	4.2	91	2.9	2	6	202	0.00	1028.720	0	0.000	0
20080426 04:40	4.2	4.2	4.2	91	2.8	2	6	202	0.00	1028.720	0	0.000	0
20080426 04:45	4.1	4.1	4.1	91	2.8	2	5	202	0.00	1028.754	0	0.000	0
20080426 04:50	4.1	4.1	4.1	91	2.7	2	6	202	0.00	1028.720	0	0.000	0
20080426 04:55	4.0	4.0	4.0	91	2.7	3	6	202	0.00	1028.754	0	0.000	0
20080426 05:00	3.9	3.9	3.9	91	2.6	3	6	202	0.00	1028.855	0	0.000	0
20080426 05:05	3.9	3.9	3.9	91	2.6	3	6	202	0.00	1028.957	0	0.000	0
20080426 05:10	3.8	3.8	3.8	91	2.5	0	5	202	0.00	1028.923	0	0.000	0
20080426 05:15	3.8	3.8	3.8	91	2.4	2	5	202	0.00	1028.957	0	0.000	0
20080426 05:20	3.7	3.7	3.7	91	2.4	3	6	202	0.00	1028.923	0	0.000	0
20080426 05:25	3.7	3.7	3.7	91	2.3	3	6	202	0.00	1028.957	0	0.000	0
20080426 05:30	3.7	3.7	3.7	91	2.3	2	8	202	0.00	1028.991	0	0.000	0
20080426 05:35	3.6	3.6	3.6	91	2.3	3	6	202	0.00	1029.059	0	0.000	0
20080426 05:40	3.6	3.6	3.6	92	2.4	3	6	202	0.00	1028.991	0	0.000	0
20080426 05:45	3.6	3.6	3.6	92	2.4	3	6	202	0.00	1029.126	0	0.000	0
20080426 05:50	3.5	3.5	3.5	92	2.3	2	6	202	0.00	1029.093	0	0.000	0
20080426 05:55	3.5	3.5	3.5	92	2.3	2	6	202	0.00	1029.126	0	0.000	0
20080426 06:00	3.4	3.4	3.4	92	2.3	0	3	202	0.00	1029.160	0	0.000	0
20080426 06:05	3.4	3.4	3.4	92	2.3	0	2	202	0.00	1029.296	1	0.000	0
20080426 06:10	3.4	3.4	3.4	92	2.2	0	2	202	0.00	1029.296	6	0.000	0
20080426 06:15	3.3	3.3	3.3	92	2.2	0	3	202	0.00	1029.363	9	0.000	0
20080426 06:20	3.3	3.3	3.3	92	2.2	0	2	202	0.00	1029.397	13	0.000	0
20080426 06:25	3.3	3.3	3.3	92	2.2	0	2	202	0.00	1029.465	16	0.000	0
20080426 06:30	3.3	3.3	3.3	92	2.2	0	3	202	0.00	1029.431	19	0.000	0
20080426 06:35	3.4	3.4	3.4	92	2.2	0	3	202	0.00	1029.465	20	0.000	0
20080426 06:40	3.4	3.4	3.4	92	2.3	0	5	202	0.00	1029.431	19	0.000	0
20080426 06:45	3.4	3.4	3.4	92	2.3	0	3	202	0.00	1029.431	19	0.000	0
20080426 06:50	3.4	3.4	3.4	92	2.3	0	2	202	0.00	1029.499	21	0.000	0
20080426 06:55	3.4	3.4	3.4	92	2.3	0	2	202	0.00	1029.431	24	0.000	0
20080426 07:00	3.4	3.4	3.4	92	2.3	0	2	202	0.00	1029.431	26	0.000	0
20080426 07:05	3.6	3.6	3.6	92	2.4	0	3	202	0.00	1029.533	31	0.000	0
20080426 07:10	3.6	3.6	3.6	92	2.4	0	2	202	0.00	1029.499	37	0.000	0
20080426 07:15	3.7	3.7	3.7	92	2.5	0	3	202	0.00	1029.533	40	0.000	0
20080426 07:20	3.8	3.8	3.8	92	2.7	2	6	202	0.00	1029.567	64	0.000	0
20080426 07:25	3.9	3.9	3.9	92	2.8	2	8	202	0.00	1029.499	97	0.000	0
20080426 07:30	4.2	4.2	4.2	91	2.8	2	5	202	0.00	1029.567	112	0.000	0
20080426 07:35	4.3	4.3	4.3	91	3.0	0	3	202	0.00	1029.600	128	0.000	0
20080426 07:40	4.5	4.5	4.5	91	3.2	0	2	202	0.00	1029.567	120	0.000	0
20080426 07:45	4.7	4.7	4.7	90	3.2	0	2	202	0.00	1029.567	132	0.000	0
20080426 07:50	4.9	4.9	4.9	90	3.4	0	2	202	0.00	1029.465	190	0.000	0
20080426 07:55	5.1	5.1	5.1	89	3.4	0	3	202	0.00	1029.465	208	0.000	0
20080426 08:00	5.3	5.3	5.3	88	3.5	2	6	202	0.00	1029.465	219	0.040	0
20080426 08:05	5.5	5.5	5.5	87	3.5	3	8	202	0.00	1029.736	230	0.000	1
20080426 08:10	5.6	5.6	5.6	86	3.5	3	10	202	0.00	1029.702	241	0.000	1
20080426 08:15	5.8	5.8	5.8	86	3.7	2	8	202	0.00	1029.702	254	0.000	1
20080426 08:20	5.9	5.9	5.9	86	3.8	3	8	202	0.00	1029.567	267	0.000	1
20080426 08:25	6.3	6.3	6.3	86	4.1	0	5	202	0.00	1029.567	281	0.000	1
20080426 08:30	6.6	6.6	6.6	85	4.2	0	3	202	0.00	1029.465	295	0.000	1
20080426 08:35	6.8	6.8	6.8	84	4.3	2	3	202	0.00	1029.499	306	0.000	1
20080426 08:40	7.0	7.0	7.0	83	4.3	2	5	202	0.00	1029.397	316	0.000	1
20080426 08:45	7.3	7.3	7.3	83	4.6	0	5	202	0.00	1029.397	329	0.000	1
20080426 08:50	7.6	7.6	7.6	82	4.7	0	2	202	0.00	1029.465	340	0.000	1
20080426 08:55	7.9	7.9	7.9	81	4.9	0	2	202	0.00	1029.465	351	0.000	1
20080426 09:00	8.3	8.3	8.3	80	5.0	0	0	202	0.00	1029.363	366	0.100	1
20080426 09:05	8.7	8.7	8.7	79	5.3	0	2	202	0.00	1029.363	383	0.000	2
20080426 09:10	9.1	9.1	9.1	77	5.2	0	3	202	0.00	1029.330	396	0.000	2
20080426 09:15	9.3	9.3	9.3	77	5.5	0	2	202	0.00	1029.330	407	0.000	2
20080426 09:20	9.4	9.4	9.4	73	4.8	2	5	202	0.00	1029.363	398	0.000	2
20080426 09:25	9.3	9.3	9.3	76	5.3	0	2	202	0.00	1029.431	94	0.000	2
20080426 09:30	9.2	9.2	9.2	77	5.3	2	5	202	0.00	1029.397	86	0.000	2
20080426 09:35	9.2	9.2	9.2	77	5.3	2	6	180	0.00	1029.397	86	0.000	2
20080426 09:40	9.2	9.2	9.2	78	5.6	2	6	180	0.00	1029.397	86	0.000	2
20080426 09:45	9.4	9.4	9.4	76	5.4	2	6	157	0.00	1029.431	90	0.000	2
20080426 09:50	9.6	9.6	9.6	75	5.3	2	6	90	0.00	1029.363	96	0.000	2
20080426 09:55	9.8	9.8	9.8	74	5.4	2	5	157	0.00	1029.194	102	0.000	2
20080426 10:00	10.1	10.1	10.1	73	5.4	3	8	135	0.00	1029.228	111	0.080	2
20080426 10:05	10.2	10.2	10.2	72	5.4	2	8	135	0.00	1029.363	113	0.000	2
20080426 10:10	10.4	10.4	10.4	71	5.4	5	8	135	0.00	1029.262	114	0.000	2
20080426 10:15	10.4	10.4	10.4	71	5.4	2	6	67	0.00	1029.262	131	0.000	2
20080426 10:20	10.6	10.6	10.6	71	5.5	2	5	112	0.00	1029.262	410	0.000	2
20080426 10:25	10.7	10.7	10.7	69	5.3	2	8	135	0.00	1029.296	562	0.000	3
20080426 10:30	10.9	10.9	10.9	71	5.8	2	5	135	0.00	1029.296	589	0.000	3
20080426 10:35	11.1	11.1	11.1	67	5.2	2	6	135	0.00	1029.262	611	0.000	3
20080426 10:40	11.2	11.2	11.2	66	5.1	3	5	90	0.00	1029.330	604	0.000	4
20080426 10:45	11.3	11.3	11.3	66	5.2	3	8	135	0.00	1029.397	631	0.000	4
20080426 10:50	11.4	11.4	11.4	64	4.9	2	6	157	0.00	1029.262	614	0.000	4
20080426 10:55	11.7	11.7	11.7	64	5.1	0	3	157	0.00	1029.228	629	0.000	4
20080426 11:00	12.0	12.0	12.0	63	5.2	2	8	157	0.00	1029.194	655	0.180	4
20080426 11:05	11.9	11.9	11.9	65	5.5	5	8	90	0.00	1029.194	653	0.000	4
20080426 11:10	11.8	11.8	11.8	65	5.4	2	5	45	0.00	1029.194	677	0.000	4
20080426 11:15	11.9	11.9	11.9	64	5.3	2	6	112	0.00	1029.093	661	0.000	4
20080426 11:20	12.2	12.2	12.2	64	5.6	2	6	90	0.00	1029.093	701	0.000	5
20080426 11:25	12.3	12.3	12.3	60	4.8	2	5	0	0.00	1029.126	771	0.000	5
20080426 11:30	12.4	12.4	12.4	61	5.1	3	8	90	0.00	1029.025	752	0.000	5
20080426 11:35	12.4	12.4	12.4	62	5.4	2	6	45	0.00	1029.025	656	0.000	5
20080426 11:40	12.4	12.4	12.4	60	4.9	3	8	22	0.00	1028.991	206	0.000	4
20080426 11:45	12.4	12.4	12.4	60	4.8	0	5	67	0.00	1028.991	557	0.000	4
20080426 11:50	12.4	12.4	12.4	61	5.1	2	3	67	0.00	1028.957	465	0.000	4
20080426 11:55	12.6	12.6	12.6	59	4.8	0	3	157	0.00	1028.788	820	0.000	6
20080426 12:00	12.9	12.9	12.9	59	5.1	2	5	247	0.00	1028.822	847	0.260	6
20080426 12:05	13.1	13.1	13.1	56	4.5	3	8	22	0.00	1028.754	831	0.000	6
20080426 12:10	13.3	13.3	13.3	53	3.9	2	6	157	0.00	1028.754	870	0.000	6
20080426 12:15	13.0	13.0	13.0	56	4.4	5	11	67	0.00	1028.754	400	0.000	4
20080426 12:20	12.8	12.8	12.8	60	5.2	3	8	45	0.00	1028.686	385	0.000	5
20080426 12:25	12.7	12.7	12.7	58	4.7	5	10	22	0.00	1028.686	244	0.000	4
20080426 12:30	12.6	12.6	12.6	60	5.0	2	5	45	0.00	1028.652	207	0.000	4
20080426 12:35	12.7	12.7	12.7	58	4.7	2	5	45	0.00	1028.720	738	0.000	6
20080426 12:40	12.8	12.8	12.8	60	5.2	5	8	67	0.00	1028.686	283	0.000	4
20080426 12:45	12.6	12.6	12.6	57	4.3	6	11	67	0.00	1028.686	169	0.000	3
20080426 12:50	12.4	12.4	12.4	57	4.2	5	10	22	0.00	1028.822	206	0.000	4
20080426 12:55	12.6	12.6	12.6	58	4.5	6	11	22	0.00	1028.720	273	0.000	4
20080426 13:00	12.6	12.6	12.6	56	4.1	5	11	45	0.00	1028.652	704	0.200	5
20080426 13:05	12.8	12.8	12.8	56	4.3	5	8	45	0.00	1028.720	610	0.000	5
20080426 13:10	12.8	12.8	12.8	55	4.0	5	10	45	0.00	1028.720	261	0.000	4
20080426 13:15	12.7	12.7	12.7	57	4.4	5	14	135	0.00	1028.618	243	0.000	4
20080426 13:20	12.7	12.7	12.7	57	4.4	6	13	112	0.00	1028.551	573	0.000	5
20080426 13:25	13.1	13.1	13.1	57	4.8	5	11	135	0.00	1028.449	869	0.000	6
20080426 13:30	13.5	13.5	13.5	53	4.1	5	10	135	0.00	1028.483	260	0.000	4
20080426 13:35	13.6	13.6	13.6	52	3.9	5	10	112	0.00	1028.483	626	0.000	5
20080426 13:40	13.6	13.6	13.6	55	4.7	6	11	112	0.00	1028.415	830	0.000	6
20080426 13:45	13.8	13.8	13.8	53	4.4	6	16	112	0.00	1028.415	884	0.000	6
20080426 13:50	13.8	13.8	13.8	54	4.6	8	14	112	0.00	1028.415	915	0.000	6
20080426 13:55	13.8	13.8	13.8	54	4.7	5	11	135	0.00	1028.381	415	0.000	4
20080426 14:00	14.1	14.1	14.1	54	4.9	5	11	135	0.00	1028.314	854	0.260	6
20080426 14:05	14.1	14.1	14.1	52	4.4	5	14	90	0.00	1028.415	867	0.000	6
20080426 14:10	14.0	14.0	14.0	53	4.6	3	10	90	0.00	1028.381	926	0.000	6
20080426 14:15	14.1	14.1	14.1	54	4.9	3	10	112	0.00	1028.314	920	0.000	6
20080426 14:20	14.2	14.2	14.2	50	3.9	3	6	112	0.00	1028.280	755	0.000	5
20080426 14:25	14.2	14.2	14.2	48	3.3	3	8	67	0.00	1028.280	649	0.000	5
20080426 14:30	14.1	14.1	14.1	46	2.7	3	10	90	0.00	1028.178	821	0.000	5
20080426 14:35	14.2	14.2	14.2	48	3.3	3	6	135	0.00	1028.246	388	0.000	4
20080426 14:40	14.2	14.2	14.2	47	3.1	6	11	67	0.00	1028.212	656	0.000	4
20080426 14:45	14.2	14.2	14.2	47	3.0	3	6	112	0.00	1028.110	239	0.000	3
20080426 14:50	14.3	14.3	14.3	48	3.4	2	5	180	0.00	1028.043	440	0.000	4
20080426 14:55	14.7	14.7	14.7	46	3.2	3	8	135	0.00	1028.077	766	0.000	5
20080426 15:00	14.9	14.9	14.9	45	3.1	6	16	112	0.00	1027.840	753	0.280	5
20080426 15:05	14.8	14.8	14.8	45	3.0	3	10	90	0.00	1027.907	733	0.000	5
20080426 15:10	14.8	14.8	14.8	43	2.3	5	14	112	0.00	1027.941	699	0.000	4
20080426 15:15	14.9	14.9	14.9	46	3.4	5	10	67	0.00	1027.806	712	0.000	4
20080426 15:20	15.0	15.0	15.0	46	3.5	5	16	112	0.00	1027.806	722	0.000	4
20080426 15:25	15.0	15.0	15.0	47	3.8	5	11	112	0.00	1027.738	670	0.000	4
20080426 15:30	15.0	15.0	15.0	46	3.5	10	19	112	0.00	1027.704	705	0.000	4
20080426 15:35	15.0	15.0	15.0	45	3.2	5	10	157	0.00	1027.704	715	0.000	4
20080426 15:40	15.0	15.0	15.0	49	4.4	5	11	67	0.00	1027.704	678	0.000	4
20080426 15:45	15.1	15.1	15.1	45	3.2	3	13	90	0.00	1027.501	748	0.000	4
20080426 15:50	15.3	15.3	15.3	44	3.1	5	11	112	0.00	1027.433	771	0.000	4
20080426 15:55	15.6	15.6	15.6	47	4.3	6	16	112	0.00	1027.332	765	0.000	4
20080426 16:00	15.8	15.8	15.8	42	2.9	5	14	112	0.00	1027.332	794	0.320	4
20080426 16:05	15.7	15.7	15.7	48	4.7	5	10	135	0.00	1027.433	772	0.000	3
20080426 16:10	15.3	15.3	15.3	50	4.9	8	16	67	0.00	1027.298	672	0.000	3
20080426 16:15	15.2	15.2	15.2	51	5.1	6	14	67	0.00	1027.264	524	0.000	3
20080426 16:20	14.8	14.8	14.8	48	3.9	8	11	67	0.00	1027.264	395	0.000	2
20080426 16:25	14.6	14.6	14.6	51	4.5	6	13	67	0.00	1027.332	459	0.000	2
20080426 16:30	14.8	14.8	14.8	49	4.2	6	18	67	0.00	1027.230	601	0.000	3
20080426 16:35	14.8	14.8	14.8	48	3.9	6	11	67	0.00	1027.196	480	0.000	3
20080426 16:40	15.0	15.0	15.0	46	3.5	6	14	67	0.00	1027.196	615	0.000	2
20080426 16:45	15.1	15.1	15.1	50	4.7	8	19	67	0.00	1027.095	603	0.000	2
20080426 16:50	15.3	15.3	15.3	50	4.9	6	11	67	0.00	1027.128	557	0.000	2
20080426 16:55	15.0	15.0	15.0	49	4.4	5	11	67	0.00	1027.095	542	0.000	2
20080426 17:00	15.0	15.0	15.0	49	4.4	5	10	90	0.00	1027.128	542	0.260	2
20080426 17:05	15.0	15.0	15.0	47	3.8	8	16	112	0.00	1027.298	281	0.000	2
20080426 17:10	14.9	14.9	14.9	51	4.9	6	16	90	0.00	1027.332	422	0.000	2
20080426 17:15	15.0	15.0	15.0	49	4.4	8	14	135	0.00	1027.230	479	0.000	2
20080426 17:20	15.0	15.0	15.0	48	4.1	6	14	112	0.00	1027.298	504	0.000	2
20080426 17:25	15.0	15.0	15.0	49	4.4	10	23	112	0.00	1027.332	489	0.000	1
20080426 17:30	15.0	15.0	15.0	48	4.1	8	14	112	0.00	1027.162	467	0.000	1
20080426 17:35	15.0	15.0	15.0	48	4.1	8	16	112	0.00	1027.298	422	0.000	1
20080426 17:40	15.0	15.0	15.0	48	4.1	6	16	112	0.00	1027.264	422	0.000	1
20080426 17:45	15.0	15.0	15.0	49	4.4	6	14	135	0.00	1027.162	396	0.000	1
20080426 17:50	14.9	14.9	14.9	50	4.6	8	14	112	0.00	1027.128	361	0.000	1
20080426 17:55	14.7	14.7	14.7	52	5.0	8	18	112	0.00	1027.128	268	0.000	1
20080426 18:00	14.4	14.4	14.4	54	5.2	8	14	112	0.00	1027.230	235	0.200	1
20080426 18:05	14.1	14.1	14.1	55	5.2	6	11	112	0.00	1027.365	154	0.000	1
20080426 18:10	13.8	13.8	13.8	56	5.2	5	10	112	0.00	1027.332	126	0.000	1
20080426 18:15	13.8	13.8	13.8	56	5.2	3	6	112	0.00	1027.332	195	0.000	1
20080426 18:20	13.9	13.9	13.9	56	5.3	2	6	135	0.00	1027.298	231	0.000	1
20080426 18:25	14.1	14.1	14.1	56	5.4	2	5	135	0.00	1027.264	200	0.000	0
20080426 18:30	14.1	14.1	14.1	56	5.4	3	11	135	0.00	1027.230	175	0.000	0
20080426 18:35	14.1	14.1	14.1	54	4.9	5	11	135	0.00	1027.196	260	0.000	0
20080426 18:40	14.1	14.1	14.1	55	5.2	5	8	135	0.00	1027.162	227	0.000	0
20080426 18:45	14.1	14.1	14.1	52	4.4	3	10	112	0.00	1027.230	210	0.000	0
20080426 18:50	14.1	14.1	14.1	53	4.6	5	11	135	0.00	1027.196	139	0.000	0
20080426 18:55	14.0	14.0	14.0	53	4.6	3	11	135	0.00	1027.196	77	0.000	0
20080426 19:00	13.9	13.9	13.9	52	4.2	3	8	112	0.00	1027.196	61	0.080	0
20080426 19:05	13.8	13.8	13.8	51	3.9	6	10	112	0.00	1027.027	56	0.000	0
20080426 19:10	13.7	13.7	13.7	54	4.6	3	6	135	0.00	1026.993	54	0.000	0
20080426 19:15	13.6	13.6	13.6	51	3.6	3	8	135	0.00	1027.061	40	0.000	0
20080426 19:20	13.4	13.4	13.4	52	3.8	2	6	135	0.00	1027.027	28	0.000	0
20080426 19:25	13.2	13.2	13.2	52	3.6	3	6	135	0.00	1027.027	20	0.000	0
20080426 19:30	13.1	13.1	13.1	53	3.7	3	6	135	0.00	1027.095	16	0.000	0
20080426 19:35	12.8	12.8	12.8	53	3.5	2	5	135	0.00	1027.264	15	0.000	0
20080426 19:40	12.7	12.7	12.7	54	3.6	2	5	135	0.00	1027.196	12	0.000	0
20080426 19:45	12.6	12.6	12.6	56	4.0	2	3	135	0.00	1027.298	11	0.000	0
20080426 19:50	12.3	12.3	12.3	56	3.8	2	5	135	0.00	1027.298	9	0.000	0
20080426 19:55	12.2	12.2	12.2	58	4.2	2	5	135	0.00	1027.298	7	0.000	0
20080426 20:00	12.1	12.1	12.1	58	4.0	2	3	135	0.00	1027.332	7	0.020	0
20080426 20:05	11.9	11.9	11.9	59	4.1	2	3	135	0.00	1027.128	5	0.000	0
20080426 20:10	11.7	11.7	11.7	60	4.2	2	5	135	0.00	1027.128	3	0.000	0
20080426 20:15	11.5	11.5	11.5	61	4.2	2	3	135	0.00	1027.162	0	0.000	0
20080426 20:20	11.3	11.3	11.3	62	4.3	2	3	135	0.00	1027.196	0	0.000	0
20080426 20:25	11.2	11.2	11.2	61	3.9	0	3	135	0.00	1027.298	0	0.000	0
20080426 20:30	10.9	10.9	10.9	63	4.2	2	3	135	0.00	1027.365	0	0.000	0
20080426 20:35	10.8	10.8	10.8	63	4.0	2	6	135	0.00	1027.365	0	0.000	0
20080426 20:40	10.7	10.7	10.7	63	3.9	5	8	135	0.00	1027.332	0	0.000	0
20080426 20:45	10.6	10.6	10.6	63	3.9	5	8	135	0.00	1027.332	0	0.000	0
20080426 20:50	10.6	10.6	10.6	63	3.8	5	10	135	0.00	1027.467	0	0.000	0
20080426 20:55	10.4	10.4	10.4	64	3.9	5	8	135	0.00	1027.399	0	0.000	0
20080426 21:00	10.3	10.3	10.3	65	4.0	5	10	135	0.00	1027.501	0	0.020	0
20080426 21:05	10.3	10.3	10.3	65	4.0	5	8	135	0.00	1027.332	0	0.000	0
20080426 21:10	10.2	10.2	10.2	66	4.1	6	10	135	0.00	1027.365	0	0.000	0
20080426 21:15	10.1	10.1	10.1	67	4.2	6	11	112	0.00	1027.433	0	0.000	0
20080426 21:20	9.9	9.3	9.9	67	4.1	6	13	135	0.00	1027.433	0	0.000	0
20080426 21:25	9.8	9.2	9.8	68	4.2	6	10	112	0.00	1027.467	0	0.000	0
20080426 21:30	9.8	9.1	9.8	68	4.2	6	11	112	0.00	1027.433	0	0.000	0
20080426 21:35	9.7	9.1	9.7	68	4.1	6	10	112	0.00	1027.433	0	0.000	0
20080426 21:40	9.6	8.9	9.6	69	4.1	6	10	112	0.00	1027.603	0	0.000	0
20080426 21:45	9.4	9.4	9.4	69	4.0	5	8	135	0.00	1027.603	0	0.000	0
20080426 21:50	9.3	9.3	9.3	70	4.1	3	6	135	0.00	1027.670	0	0.000	0
20080426 21:55	9.2	9.2	9.2	71	4.2	5	10	112	0.00	1027.636	0	0.000	0
20080426 22:00	9.0	9.0	9.0	71	4.0	3	8	112	0.00	1027.636	0	0.020	0
20080426 22:05	8.9	8.9	8.9	72	4.1	2	6	135	0.00	1027.298	0	0.000	0
20080426 22:10	8.8	8.8	8.8	72	4.0	3	10	112	0.00	1027.332	0	0.000	0
20080426 22:15	8.7	8.7	8.7	72	3.9	5	10	112	0.00	1027.298	0	0.000	0
20080426 22:20	8.6	8.6	8.6	73	4.0	5	8	135	0.00	1027.298	0	0.000	0
20080426 22:25	8.4	8.4	8.4	73	3.9	3	10	135	0.00	1027.399	0	0.000	0
20080426 22:30	8.3	8.3	8.3	73	3.8	5	10	135	0.00	1027.399	0	0.000	0
20080426 22:35	8.3	8.3	8.3	74	3.9	5	8	135	0.00	1027.365	0	0.000	0
20080426 22:40	8.2	8.2	8.2	74	3.9	5	8	135	0.00	1027.332	0	0.000	0
20080426 22:45	8.1	8.1	8.1	74	3.8	5	8	135	0.00	1027.332	0	0.000	0
20080426 22:50	8.1	7.2	8.1	73	3.6	6	10	135	0.00	1027.298	0	0.000	0
20080426 22:55	8.2	7.3	8.2	73	3.6	6	10	112	0.00	1027.230	0	0.000	0
20080426 23:00	8.1	8.1	8.1	73	3.6	5	11	112	0.00	1027.196	0	0.020	0
20080426 23:05	8.2	8.2	8.2	73	3.6	5	8	112	0.00	1026.993	0	0.000	0
20080426 23:10	8.2	7.3	8.2	72	3.4	6	8	112	0.00	1026.993	0	0.000	0
20080426 23:15	8.1	8.1	8.1	72	3.3	3	8	112	0.00	1026.993	0	0.000	0
20080426 23:20	7.9	7.9	7.9	73	3.4	2	6	135	0.00	1027.162	0	0.000	0
20080426 23:25	7.8	7.8	7.8	73	3.3	2	5	135	0.00	1027.128	0	0.000	0
20080426 23:30	7.8	7.8	7.8	73	3.2	3	6	157	0.00	1027.128	0	0.000	0
20080426 23:35	7.7	7.7	7.7	74	3.3	2	5	135	0.00	1027.095	0	0.000	0
20080426 23:40	7.6	7.6	7.6	74	3.2	2	5	135	0.00	1026.993	0	0.000	0
20080426 23:45	7.5	7.5	7.5	74	3.2	2	5	135	0.00	1027.027	0	0.000	0
20080426 23:50	7.4	7.4	7.4	74	3.1	5	8	135	0.00	1026.959	0	0.000	0
20080426 23:55	7.4	6.4	7.4	74	3.1	6	10	112	0.00	1026.959	0	0.000	0
20080426 24:00	7.4	6.4	7.4	74	3.1	6	10	112	0.00	1026.891	0	0.020	0



Please note the license to use and transfer of this data:
http://creativecommons.org/licenses/by-nc-sa/3.0/deed.en

Bitte beachten sie die Lizenz zur Verwertung und Weitergabe der Daten:
http://creativecommons.org/licenses/by-nc-sa/3.0/deed.de

zurück zur Übersicht der Archivdaten (Monats und Tagesdaten)

Cookies helfen bei der Bereitstellung von Inhalten. Durch die Nutzung dieser Seiten erklärst du dich damit einverstanden, dass Cookies auf deinem Rechner gespeichert werden. Weitere Information